sensor_id;sensor_type;location;lat;lon;timestamp;temperature;humidity
67598;DHT22;62026;39.230;9.122;2023-06-19T00:00:24;24.60;51.20
67598;DHT22;62026;39.230;9.122;2023-06-19T00:02:50;24.70;51.20
67598;DHT22;62026;39.230;9.122;2023-06-19T00:05:16;24.60;51.50
67598;DHT22;62026;39.230;9.122;2023-06-19T00:07:42;24.70;51.50
67598;DHT22;62026;39.230;9.122;2023-06-19T00:10:08;24.70;51.30
67598;DHT22;62026;39.230;9.122;2023-06-19T00:12:34;24.70;51.40
67598;DHT22;62026;39.230;9.122;2023-06-19T00:15:02;24.70;51.50
67598;DHT22;62026;39.230;9.122;2023-06-19T00:17:28;24.70;51.30
67598;DHT22;62026;39.230;9.122;2023-06-19T00:19:54;24.60;51.50
67598;DHT22;62026;39.230;9.122;2023-06-19T00:22:20;24.60;51.80
67598;DHT22;62026;39.230;9.122;2023-06-19T00:24:47;24.60;52.10
67598;DHT22;62026;39.230;9.122;2023-06-19T00:27:13;24.60;52.10
67598;DHT22;62026;39.230;9.122;2023-06-19T00:29:39;24.60;52.50
67598;DHT22;62026;39.230;9.122;2023-06-19T00:32:06;24.50;52.20
67598;DHT22;62026;39.230;9.122;2023-06-19T00:34:32;24.50;52.60
67598;DHT22;62026;39.230;9.122;2023-06-19T00:36:58;24.60;53.00
67598;DHT22;62026;39.230;9.122;2023-06-19T00:39:27;24.60;52.70
67598;DHT22;62026;39.230;9.122;2023-06-19T00:41:53;24.60;52.40
67598;DHT22;62026;39.230;9.122;2023-06-19T00:44:22;24.60;51.90
67598;DHT22;62026;39.230;9.122;2023-06-19T00:46:56;24.50;51.70
67598;DHT22;62026;39.230;9.122;2023-06-19T00:49:25;24.60;51.60
67598;DHT22;62026;39.230;9.122;2023-06-19T00:51:53;24.50;51.40
67598;DHT22;62026;39.230;9.122;2023-06-19T00:54:19;24.50;51.40
67598;DHT22;62026;39.230;9.122;2023-06-19T00:56:46;24.50;51.60
67598;DHT22;62026;39.230;9.122;2023-06-19T00:59:18;24.50;51.70
67598;DHT22;62026;39.230;9.122;2023-06-19T01:01:45;24.50;51.60
67598;DHT22;62026;39.230;9.122;2023-06-19T01:04:12;24.50;51.20
67598;DHT22;62026;39.230;9.122;2023-06-19T01:06:57;24.50;51.20
67598;DHT22;62026;39.230;9.122;2023-06-19T01:09:46;24.50;51.20
67598;DHT22;62026;39.230;9.122;2023-06-19T01:12:18;24.50;51.20
67598;DHT22;62026;39.230;9.122;2023-06-19T01:15:00;24.50;51.40
67598;DHT22;62026;39.230;9.122;2023-06-19T01:17:29;24.50;51.10
67598;DHT22;62026;39.230;9.122;2023-06-19T01:19:57;24.40;51.20
67598;DHT22;62026;39.230;9.122;2023-06-19T01:22:30;24.40;51.10
67598;DHT22;62026;39.230;9.122;2023-06-19T01:24:59;24.50;50.80
67598;DHT22;62026;39.230;9.122;2023-06-19T01:27:26;24.50;50.30
67598;DHT22;62026;39.230;9.122;2023-06-19T01:29:56;24.50;50.40
67598;DHT22;62026;39.230;9.122;2023-06-19T01:32:50;24.50;50.10
67598;DHT22;62026;39.230;9.122;2023-06-19T01:35:25;24.50;49.30
67598;DHT22;62026;39.230;9.122;2023-06-19T01:37:54;24.50;49.60
67598;DHT22;62026;39.230;9.122;2023-06-19T01:40:22;24.40;50.00
67598;DHT22;62026;39.230;9.122;2023-06-19T01:42:53;24.40;50.60
67598;DHT22;62026;39.230;9.122;2023-06-19T01:45:20;24.40;50.60
67598;DHT22;62026;39.230;9.122;2023-06-19T01:47:46;24.40;50.60
67598;DHT22;62026;39.230;9.122;2023-06-19T01:50:12;24.40;50.70
67598;DHT22;62026;39.230;9.122;2023-06-19T01:52:39;24.40;50.60
67598;DHT22;62026;39.230;9.122;2023-06-19T01:55:07;24.40;50.70
67598;DHT22;62026;39.230;9.122;2023-06-19T01:57:35;24.40;50.80
67598;DHT22;62026;39.230;9.122;2023-06-19T02:00:04;24.40;51.20
67598;DHT22;62026;39.230;9.122;2023-06-19T02:02:39;24.40;51.10
67598;DHT22;62026;39.230;9.122;2023-06-19T02:05:06;24.40;51.30
67598;DHT22;62026;39.230;9.122;2023-06-19T02:07:32;24.40;51.80
67598;DHT22;62026;39.230;9.122;2023-06-19T02:09:58;24.30;51.00
67598;DHT22;62026;39.230;9.122;2023-06-19T02:12:24;24.30;50.80
67598;DHT22;62026;39.230;9.122;2023-06-19T02:14:50;24.30;50.50
67598;DHT22;62026;39.230;9.122;2023-06-19T02:17:16;24.30;50.10
67598;DHT22;62026;39.230;9.122;2023-06-19T02:19:42;24.30;50.40
67598;DHT22;62026;39.230;9.122;2023-06-19T02:22:08;24.30;50.40
67598;DHT22;62026;39.230;9.122;2023-06-19T02:24:35;24.30;50.50
67598;DHT22;62026;39.230;9.122;2023-06-19T02:27:04;24.30;50.60
67598;DHT22;62026;39.230;9.122;2023-06-19T02:29:31;24.40;50.30
67598;DHT22;62026;39.230;9.122;2023-06-19T02:31:59;24.30;50.60
67598;DHT22;62026;39.230;9.122;2023-06-19T02:34:26;24.30;51.10
67598;DHT22;62026;39.230;9.122;2023-06-19T02:36:52;24.30;50.90
67598;DHT22;62026;39.230;9.122;2023-06-19T02:39:18;24.30;51.00
67598;DHT22;62026;39.230;9.122;2023-06-19T02:41:44;24.30;50.00
67598;DHT22;62026;39.230;9.122;2023-06-19T02:44:12;24.30;50.00
67598;DHT22;62026;39.230;9.122;2023-06-19T02:46:39;24.30;49.70
67598;DHT22;62026;39.230;9.122;2023-06-19T02:49:08;24.30;49.90
67598;DHT22;62026;39.230;9.122;2023-06-19T02:51:34;24.30;49.40
67598;DHT22;62026;39.230;9.122;2023-06-19T02:54:00;24.30;49.30
67598;DHT22;62026;39.230;9.122;2023-06-19T02:56:26;24.30;48.60
67598;DHT22;62026;39.230;9.122;2023-06-19T02:58:54;24.30;48.70
67598;DHT22;62026;39.230;9.122;2023-06-19T03:01:20;24.40;48.70
67598;DHT22;62026;39.230;9.122;2023-06-19T03:03:46;24.30;48.40
67598;DHT22;62026;39.230;9.122;2023-06-19T03:06:13;24.30;48.50
67598;DHT22;62026;39.230;9.122;2023-06-19T03:08:39;24.30;48.20
67598;DHT22;62026;39.230;9.122;2023-06-19T03:11:06;24.30;48.10
67598;DHT22;62026;39.230;9.122;2023-06-19T03:13:49;24.30;47.50
67598;DHT22;62026;39.230;9.122;2023-06-19T03:16:19;24.40;46.80
67598;DHT22;62026;39.230;9.122;2023-06-19T03:18:48;24.40;46.70
67598;DHT22;62026;39.230;9.122;2023-06-19T03:21:16;24.40;46.30
67598;DHT22;62026;39.230;9.122;2023-06-19T03:23:45;24.40;46.40
67598;DHT22;62026;39.230;9.122;2023-06-19T03:26:12;24.30;46.50
67598;DHT22;62026;39.230;9.122;2023-06-19T03:28:40;24.40;46.40
67598;DHT22;62026;39.230;9.122;2023-06-19T03:31:08;24.30;45.80
67598;DHT22;62026;39.230;9.122;2023-06-19T03:33:34;24.40;46.00
67598;DHT22;62026;39.230;9.122;2023-06-19T03:36:00;24.30;46.20
67598;DHT22;62026;39.230;9.122;2023-06-19T03:38:39;24.30;46.30
67598;DHT22;62026;39.230;9.122;2023-06-19T03:41:05;24.40;46.10
67598;DHT22;62026;39.230;9.122;2023-06-19T03:43:31;24.40;46.10
67598;DHT22;62026;39.230;9.122;2023-06-19T03:45:57;24.30;46.50
67598;DHT22;62026;39.230;9.122;2023-06-19T03:48:23;24.30;46.60
67598;DHT22;62026;39.230;9.122;2023-06-19T03:50:49;24.30;46.60
67598;DHT22;62026;39.230;9.122;2023-06-19T03:53:15;24.30;46.50
67598;DHT22;62026;39.230;9.122;2023-06-19T03:55:42;24.30;46.40
67598;DHT22;62026;39.230;9.122;2023-06-19T03:58:11;24.30;46.20
67598;DHT22;62026;39.230;9.122;2023-06-19T04:00:37;24.30;46.10
67598;DHT22;62026;39.230;9.122;2023-06-19T04:03:03;24.30;46.20
67598;DHT22;62026;39.230;9.122;2023-06-19T04:05:29;24.30;46.60
67598;DHT22;62026;39.230;9.122;2023-06-19T04:07:55;24.40;46.60
67598;DHT22;62026;39.230;9.122;2023-06-19T04:10:21;24.30;47.00
67598;DHT22;62026;39.230;9.122;2023-06-19T04:12:47;24.30;47.00
67598;DHT22;62026;39.230;9.122;2023-06-19T04:15:13;24.30;46.90
67598;DHT22;62026;39.230;9.122;2023-06-19T04:17:39;24.30;46.80
67598;DHT22;62026;39.230;9.122;2023-06-19T04:20:06;24.30;46.50
67598;DHT22;62026;39.230;9.122;2023-06-19T04:22:40;24.30;46.60
67598;DHT22;62026;39.230;9.122;2023-06-19T04:25:10;24.30;46.60
67598;DHT22;62026;39.230;9.122;2023-06-19T04:27:36;24.30;46.30
67598;DHT22;62026;39.230;9.122;2023-06-19T04:30:03;24.30;46.00
67598;DHT22;62026;39.230;9.122;2023-06-19T04:32:30;24.30;46.30
67598;DHT22;62026;39.230;9.122;2023-06-19T04:34:56;24.30;47.10
67598;DHT22;62026;39.230;9.122;2023-06-19T04:37:23;24.30;47.30
67598;DHT22;62026;39.230;9.122;2023-06-19T04:39:49;24.30;46.80
67598;DHT22;62026;39.230;9.122;2023-06-19T04:42:16;24.30;47.20
67598;DHT22;62026;39.230;9.122;2023-06-19T04:44:47;24.40;47.40
67598;DHT22;62026;39.230;9.122;2023-06-19T04:47:16;24.40;45.90
67598;DHT22;62026;39.230;9.122;2023-06-19T04:49:43;24.40;43.90
67598;DHT22;62026;39.230;9.122;2023-06-19T04:52:09;24.40;42.70
67598;DHT22;62026;39.230;9.122;2023-06-19T04:54:35;24.40;41.80
67598;DHT22;62026;39.230;9.122;2023-06-19T04:57:01;24.40;41.70
67598;DHT22;62026;39.230;9.122;2023-06-19T04:59:27;24.40;41.40
67598;DHT22;62026;39.230;9.122;2023-06-19T05:01:53;24.50;41.70
67598;DHT22;62026;39.230;9.122;2023-06-19T05:04:20;24.50;42.00
67598;DHT22;62026;39.230;9.122;2023-06-19T05:06:48;24.60;42.10
67598;DHT22;62026;39.230;9.122;2023-06-19T05:09:15;24.60;42.30
67598;DHT22;62026;39.230;9.122;2023-06-19T05:11:41;24.60;42.00
67598;DHT22;62026;39.230;9.122;2023-06-19T05:14:07;24.70;42.20
67598;DHT22;62026;39.230;9.122;2023-06-19T05:16:36;24.70;41.10
67598;DHT22;62026;39.230;9.122;2023-06-19T05:19:02;24.80;41.40
67598;DHT22;62026;39.230;9.122;2023-06-19T05:21:28;24.80;42.00
67598;DHT22;62026;39.230;9.122;2023-06-19T05:23:54;24.80;41.90
67598;DHT22;62026;39.230;9.122;2023-06-19T05:26:20;24.80;42.20
67598;DHT22;62026;39.230;9.122;2023-06-19T05:28:46;24.80;42.40
67598;DHT22;62026;39.230;9.122;2023-06-19T05:31:13;24.80;42.60
67598;DHT22;62026;39.230;9.122;2023-06-19T05:33:39;24.80;42.40
67598;DHT22;62026;39.230;9.122;2023-06-19T05:36:06;24.90;42.00
67598;DHT22;62026;39.230;9.122;2023-06-19T05:38:32;24.90;42.20
67598;DHT22;62026;39.230;9.122;2023-06-19T05:40:58;24.90;42.20
67598;DHT22;62026;39.230;9.122;2023-06-19T05:43:26;25.00;42.20
67598;DHT22;62026;39.230;9.122;2023-06-19T05:45:53;25.00;41.90
67598;DHT22;62026;39.230;9.122;2023-06-19T05:48:21;25.10;41.40
67598;DHT22;62026;39.230;9.122;2023-06-19T05:50:47;25.20;40.90
67598;DHT22;62026;39.230;9.122;2023-06-19T05:53:13;25.20;40.80
67598;DHT22;62026;39.230;9.122;2023-06-19T05:55:39;25.30;41.30
67598;DHT22;62026;39.230;9.122;2023-06-19T05:58:05;25.40;41.30
67598;DHT22;62026;39.230;9.122;2023-06-19T06:00:32;25.40;40.90
67598;DHT22;62026;39.230;9.122;2023-06-19T06:02:58;25.50;41.40
67598;DHT22;62026;39.230;9.122;2023-06-19T06:05:28;25.50;40.60
67598;DHT22;62026;39.230;9.122;2023-06-19T06:07:54;25.50;40.50
67598;DHT22;62026;39.230;9.122;2023-06-19T06:10:22;25.50;40.60
67598;DHT22;62026;39.230;9.122;2023-06-19T06:12:49;25.60;40.60
67598;DHT22;62026;39.230;9.122;2023-06-19T06:15:15;25.60;39.70
67598;DHT22;62026;39.230;9.122;2023-06-19T06:17:42;25.60;40.10
67598;DHT22;62026;39.230;9.122;2023-06-19T06:20:08;25.60;40.00
67598;DHT22;62026;39.230;9.122;2023-06-19T06:22:40;25.70;40.10
67598;DHT22;62026;39.230;9.122;2023-06-19T06:25:08;25.70;40.20
67598;DHT22;62026;39.230;9.122;2023-06-19T06:27:38;25.80;40.30
67598;DHT22;62026;39.230;9.122;2023-06-19T06:30:04;26.10;40.20
67598;DHT22;62026;39.230;9.122;2023-06-19T06:32:30;26.30;40.10
67598;DHT22;62026;39.230;9.122;2023-06-19T06:34:57;26.30;40.10
67598;DHT22;62026;39.230;9.122;2023-06-19T06:37:24;26.30;40.20
67598;DHT22;62026;39.230;9.122;2023-06-19T06:39:51;26.30;40.10
67598;DHT22;62026;39.230;9.122;2023-06-19T06:42:18;26.40;40.40
67598;DHT22;62026;39.230;9.122;2023-06-19T06:44:45;26.50;40.10
67598;DHT22;62026;39.230;9.122;2023-06-19T06:47:11;26.60;40.10
67598;DHT22;62026;39.230;9.122;2023-06-19T06:49:37;26.70;39.40
67598;DHT22;62026;39.230;9.122;2023-06-19T06:52:04;26.70;39.50
67598;DHT22;62026;39.230;9.122;2023-06-19T06:54:30;26.70;38.80
67598;DHT22;62026;39.230;9.122;2023-06-19T06:56:57;26.80;38.80
67598;DHT22;62026;39.230;9.122;2023-06-19T06:59:26;26.90;38.70
67598;DHT22;62026;39.230;9.122;2023-06-19T07:01:54;26.90;38.70
67598;DHT22;62026;39.230;9.122;2023-06-19T07:04:20;27.00;38.20
67598;DHT22;62026;39.230;9.122;2023-06-19T07:06:46;27.00;38.70
67598;DHT22;62026;39.230;9.122;2023-06-19T07:09:13;27.10;38.50
67598;DHT22;62026;39.230;9.122;2023-06-19T07:11:40;26.90;39.00
67598;DHT22;62026;39.230;9.122;2023-06-19T07:14:06;26.90;39.30
67598;DHT22;62026;39.230;9.122;2023-06-19T07:16:32;26.90;39.60
67598;DHT22;62026;39.230;9.122;2023-06-19T07:18:58;26.80;38.50
67598;DHT22;62026;39.230;9.122;2023-06-19T07:21:27;26.80;38.20
67598;DHT22;62026;39.230;9.122;2023-06-19T07:23:54;26.90;38.50
67598;DHT22;62026;39.230;9.122;2023-06-19T07:26:20;27.00;38.70
67598;DHT22;62026;39.230;9.122;2023-06-19T07:28:46;27.10;38.30
67598;DHT22;62026;39.230;9.122;2023-06-19T07:31:12;27.10;38.70
67598;DHT22;62026;39.230;9.122;2023-06-19T07:33:38;27.20;38.60
67598;DHT22;62026;39.230;9.122;2023-06-19T07:36:05;27.30;39.20
67598;DHT22;62026;39.230;9.122;2023-06-19T07:38:31;27.40;38.80
67598;DHT22;62026;39.230;9.122;2023-06-19T07:40:57;27.50;38.20
67598;DHT22;62026;39.230;9.122;2023-06-19T07:43:23;27.50;37.90
67598;DHT22;62026;39.230;9.122;2023-06-19T07:45:49;27.50;37.90
67598;DHT22;62026;39.230;9.122;2023-06-19T07:48:16;27.50;38.20
67598;DHT22;62026;39.230;9.122;2023-06-19T07:50:42;27.60;37.70
67598;DHT22;62026;39.230;9.122;2023-06-19T07:53:08;27.50;37.20
67598;DHT22;62026;39.230;9.122;2023-06-19T07:55:34;27.50;37.60
67598;DHT22;62026;39.230;9.122;2023-06-19T07:58:01;27.60;37.40
67598;DHT22;62026;39.230;9.122;2023-06-19T08:00:27;27.70;37.10
67598;DHT22;62026;39.230;9.122;2023-06-19T08:02:54;27.60;37.40
67598;DHT22;62026;39.230;9.122;2023-06-19T08:05:20;27.70;37.80
67598;DHT22;62026;39.230;9.122;2023-06-19T08:07:46;27.60;38.10
67598;DHT22;62026;39.230;9.122;2023-06-19T08:10:12;27.70;38.20
67598;DHT22;62026;39.230;9.122;2023-06-19T08:12:38;27.90;38.20
67598;DHT22;62026;39.230;9.122;2023-06-19T08:15:06;28.00;38.20
67598;DHT22;62026;39.230;9.122;2023-06-19T08:17:33;28.00;38.50
67598;DHT22;62026;39.230;9.122;2023-06-19T08:20:00;28.10;38.30
67598;DHT22;62026;39.230;9.122;2023-06-19T08:22:26;28.10;37.70
67598;DHT22;62026;39.230;9.122;2023-06-19T08:24:52;28.10;37.10
67598;DHT22;62026;39.230;9.122;2023-06-19T08:27:18;28.10;37.60
67598;DHT22;62026;39.230;9.122;2023-06-19T08:29:44;28.30;37.70
67598;DHT22;62026;39.230;9.122;2023-06-19T08:32:10;28.30;37.60
67598;DHT22;62026;39.230;9.122;2023-06-19T08:34:36;28.30;36.90
67598;DHT22;62026;39.230;9.122;2023-06-19T08:37:05;28.40;37.00
67598;DHT22;62026;39.230;9.122;2023-06-19T08:39:31;28.50;37.00
67598;DHT22;62026;39.230;9.122;2023-06-19T08:41:57;28.70;37.00
67598;DHT22;62026;39.230;9.122;2023-06-19T08:44:23;28.70;36.60
67598;DHT22;62026;39.230;9.122;2023-06-19T08:46:49;28.70;37.00
67598;DHT22;62026;39.230;9.122;2023-06-19T08:49:15;28.70;35.90
67598;DHT22;62026;39.230;9.122;2023-06-19T08:51:42;28.80;35.90
67598;DHT22;62026;39.230;9.122;2023-06-19T08:54:08;28.80;35.60
67598;DHT22;62026;39.230;9.122;2023-06-19T08:56:37;28.70;35.70
67598;DHT22;62026;39.230;9.122;2023-06-19T08:59:11;28.50;35.80
67598;DHT22;62026;39.230;9.122;2023-06-19T09:01:47;28.50;35.60
67598;DHT22;62026;39.230;9.122;2023-06-19T09:04:26;28.60;35.30
67598;DHT22;62026;39.230;9.122;2023-06-19T09:06:53;28.60;35.00
67598;DHT22;62026;39.230;9.122;2023-06-19T09:09:23;28.70;35.60
67598;DHT22;62026;39.230;9.122;2023-06-19T09:12:04;28.70;36.30
67598;DHT22;62026;39.230;9.122;2023-06-19T09:14:39;28.70;35.90
67598;DHT22;62026;39.230;9.122;2023-06-19T09:17:28;28.70;35.50
67598;DHT22;62026;39.230;9.122;2023-06-19T09:19:57;28.80;34.90
67598;DHT22;62026;39.230;9.122;2023-06-19T09:22:23;28.70;35.40
67598;DHT22;62026;39.230;9.122;2023-06-19T09:24:51;28.60;35.60
67598;DHT22;62026;39.230;9.122;2023-06-19T09:27:18;28.60;35.30
67598;DHT22;62026;39.230;9.122;2023-06-19T09:29:48;28.50;34.60
67598;DHT22;62026;39.230;9.122;2023-06-19T09:34:48;28.40;34.50
67598;DHT22;62026;39.230;9.122;2023-06-19T09:37:23;28.30;34.80
67598;DHT22;62026;39.230;9.122;2023-06-19T09:39:59;28.20;35.20
67598;DHT22;62026;39.230;9.122;2023-06-19T09:42:33;28.20;35.20
67598;DHT22;62026;39.230;9.122;2023-06-19T09:45:05;28.20;36.20
67598;DHT22;62026;39.230;9.122;2023-06-19T09:47:39;28.20;35.60
67598;DHT22;62026;39.230;9.122;2023-06-19T09:50:13;28.10;36.00
67598;DHT22;62026;39.230;9.122;2023-06-19T09:52:41;28.00;36.50
67598;DHT22;62026;39.230;9.122;2023-06-19T09:55:10;28.00;36.10
67598;DHT22;62026;39.230;9.122;2023-06-19T09:57:41;27.90;37.30
67598;DHT22;62026;39.230;9.122;2023-06-19T10:00:10;27.80;37.80
67598;DHT22;62026;39.230;9.122;2023-06-19T10:02:43;27.80;37.60
67598;DHT22;62026;39.230;9.122;2023-06-19T10:05:12;27.90;38.20
67598;DHT22;62026;39.230;9.122;2023-06-19T10:07:42;27.80;38.30
67598;DHT22;62026;39.230;9.122;2023-06-19T10:10:12;27.80;38.00
67598;DHT22;62026;39.230;9.122;2023-06-19T10:12:47;27.70;38.60
67598;DHT22;62026;39.230;9.122;2023-06-19T10:15:17;27.70;39.00
67598;DHT22;62026;39.230;9.122;2023-06-19T10:17:52;27.70;40.00
67598;DHT22;62026;39.230;9.122;2023-06-19T10:20:33;27.80;40.10
67598;DHT22;62026;39.230;9.122;2023-06-19T10:23:17;27.80;40.10
67598;DHT22;62026;39.230;9.122;2023-06-19T10:25:46;27.70;40.50
67598;DHT22;62026;39.230;9.122;2023-06-19T10:28:21;27.70;40.20
67598;DHT22;62026;39.230;9.122;2023-06-19T10:30:56;27.70;40.40
67598;DHT22;62026;39.230;9.122;2023-06-19T10:33:31;27.70;40.70
67598;DHT22;62026;39.230;9.122;2023-06-19T10:36:00;27.70;41.10
67598;DHT22;62026;39.230;9.122;2023-06-19T10:38:28;27.80;40.90
67598;DHT22;62026;39.230;9.122;2023-06-19T10:40:54;27.90;40.80
67598;DHT22;62026;39.230;9.122;2023-06-19T10:43:25;27.90;40.80
67598;DHT22;62026;39.230;9.122;2023-06-19T10:45:57;28.00;40.90
67598;DHT22;62026;39.230;9.122;2023-06-19T10:48:24;28.00;41.20
67598;DHT22;62026;39.230;9.122;2023-06-19T10:50:51;28.00;40.80
67598;DHT22;62026;39.230;9.122;2023-06-19T10:53:27;28.00;40.90
67598;DHT22;62026;39.230;9.122;2023-06-19T10:56:00;28.10;40.20
67598;DHT22;62026;39.230;9.122;2023-06-19T10:58:28;28.00;40.20
67598;DHT22;62026;39.230;9.122;2023-06-19T11:00:55;27.90;40.00
67598;DHT22;62026;39.230;9.122;2023-06-19T11:03:22;28.00;39.70
67598;DHT22;62026;39.230;9.122;2023-06-19T11:05:48;28.00;40.70
67598;DHT22;62026;39.230;9.122;2023-06-19T11:08:34;28.00;40.90
67598;DHT22;62026;39.230;9.122;2023-06-19T11:11:00;28.10;40.90
67598;DHT22;62026;39.230;9.122;2023-06-19T11:13:26;28.00;41.00
67598;DHT22;62026;39.230;9.122;2023-06-19T11:15:52;28.00;41.60
67598;DHT22;62026;39.230;9.122;2023-06-19T11:18:18;28.00;42.00
67598;DHT22;62026;39.230;9.122;2023-06-19T11:20:52;28.00;41.30
67598;DHT22;62026;39.230;9.122;2023-06-19T11:23:30;28.00;41.50
67598;DHT22;62026;39.230;9.122;2023-06-19T11:26:06;28.00;41.10
67598;DHT22;62026;39.230;9.122;2023-06-19T11:28:32;27.90;40.90
67598;DHT22;62026;39.230;9.122;2023-06-19T11:31:00;27.80;41.20
67598;DHT22;62026;39.230;9.122;2023-06-19T11:33:28;27.70;41.00
67598;DHT22;62026;39.230;9.122;2023-06-19T11:35:58;27.70;41.00
67598;DHT22;62026;39.230;9.122;2023-06-19T11:38:26;27.70;41.10
67598;DHT22;62026;39.230;9.122;2023-06-19T11:40:55;27.80;40.50
67598;DHT22;62026;39.230;9.122;2023-06-19T11:46:02;27.80;40.30
67598;DHT22;62026;39.230;9.122;2023-06-19T11:48:30;27.80;39.80
67598;DHT22;62026;39.230;9.122;2023-06-19T11:50:57;27.80;40.00
67598;DHT22;62026;39.230;9.122;2023-06-19T11:53:24;27.80;40.10
67598;DHT22;62026;39.230;9.122;2023-06-19T11:55:51;27.70;40.30
67598;DHT22;62026;39.230;9.122;2023-06-19T11:58:18;27.70;40.80
67598;DHT22;62026;39.230;9.122;2023-06-19T12:00:47;27.70;40.80
67598;DHT22;62026;39.230;9.122;2023-06-19T12:03:13;27.70;41.10
67598;DHT22;62026;39.230;9.122;2023-06-19T12:05:39;27.60;41.30
67598;DHT22;62026;39.230;9.122;2023-06-19T12:08:06;27.50;41.30
67598;DHT22;62026;39.230;9.122;2023-06-19T12:10:33;27.50;41.40
67598;DHT22;62026;39.230;9.122;2023-06-19T12:13:00;27.40;41.20
67598;DHT22;62026;39.230;9.122;2023-06-19T12:15:26;27.40;42.00
67598;DHT22;62026;39.230;9.122;2023-06-19T12:17:52;27.30;43.00
67598;DHT22;62026;39.230;9.122;2023-06-19T12:20:18;27.20;43.40
67598;DHT22;62026;39.230;9.122;2023-06-19T12:22:45;27.20;43.20
67598;DHT22;62026;39.230;9.122;2023-06-19T12:25:11;27.10;43.80
67598;DHT22;62026;39.230;9.122;2023-06-19T12:27:40;27.10;44.20
67598;DHT22;62026;39.230;9.122;2023-06-19T12:30:07;27.00;44.40
67598;DHT22;62026;39.230;9.122;2023-06-19T12:32:33;27.00;44.40
67598;DHT22;62026;39.230;9.122;2023-06-19T12:34:59;27.10;44.20
67598;DHT22;62026;39.230;9.122;2023-06-19T12:37:25;27.10;43.10
67598;DHT22;62026;39.230;9.122;2023-06-19T12:39:52;27.00;43.20
67598;DHT22;62026;39.230;9.122;2023-06-19T12:42:18;27.10;42.30
67598;DHT22;62026;39.230;9.122;2023-06-19T12:44:44;27.20;40.80
67598;DHT22;62026;39.230;9.122;2023-06-19T12:47:10;27.20;39.30
67598;DHT22;62026;39.230;9.122;2023-06-19T12:49:37;27.30;38.60
67598;DHT22;62026;39.230;9.122;2023-06-19T12:52:03;27.30;39.00
67598;DHT22;62026;39.230;9.122;2023-06-19T12:54:31;27.30;39.20
67598;DHT22;62026;39.230;9.122;2023-06-19T12:56:57;27.30;39.00
67598;DHT22;62026;39.230;9.122;2023-06-19T12:59:23;27.20;39.10
67598;DHT22;62026;39.230;9.122;2023-06-19T13:01:50;27.30;38.70
67598;DHT22;62026;39.230;9.122;2023-06-19T13:04:16;27.20;38.80
67598;DHT22;62026;39.230;9.122;2023-06-19T13:06:42;27.30;39.00
67598;DHT22;62026;39.230;9.122;2023-06-19T13:09:08;27.20;39.70
67598;DHT22;62026;39.230;9.122;2023-06-19T13:11:34;27.10;40.10
67598;DHT22;62026;39.230;9.122;2023-06-19T13:14:01;27.00;40.60
67598;DHT22;62026;39.230;9.122;2023-06-19T13:16:27;27.00;40.90
67598;DHT22;62026;39.230;9.122;2023-06-19T13:18:53;26.90;40.70
67598;DHT22;62026;39.230;9.122;2023-06-19T13:21:19;26.90;41.20
67598;DHT22;62026;39.230;9.122;2023-06-19T13:23:45;26.90;41.80
67598;DHT22;62026;39.230;9.122;2023-06-19T13:26:11;26.80;42.20
67598;DHT22;62026;39.230;9.122;2023-06-19T13:28:37;26.70;43.00
67598;DHT22;62026;39.230;9.122;2023-06-19T13:31:03;26.70;43.80
67598;DHT22;62026;39.230;9.122;2023-06-19T13:33:29;26.60;44.60
67598;DHT22;62026;39.230;9.122;2023-06-19T13:35:55;26.50;44.90
67598;DHT22;62026;39.230;9.122;2023-06-19T13:38:21;26.50;44.80
67598;DHT22;62026;39.230;9.122;2023-06-19T13:40:48;26.40;44.40
67598;DHT22;62026;39.230;9.122;2023-06-19T13:43:14;26.40;44.60
67598;DHT22;62026;39.230;9.122;2023-06-19T13:45:40;26.50;44.70
67598;DHT22;62026;39.230;9.122;2023-06-19T13:48:06;26.50;44.40
67598;DHT22;62026;39.230;9.122;2023-06-19T13:50:33;26.60;44.20
67598;DHT22;62026;39.230;9.122;2023-06-19T13:53:00;26.60;43.90
67598;DHT22;62026;39.230;9.122;2023-06-19T13:55:27;26.60;44.20
67598;DHT22;62026;39.230;9.122;2023-06-19T13:57:53;26.70;44.30
67598;DHT22;62026;39.230;9.122;2023-06-19T14:00:19;26.70;44.00
67598;DHT22;62026;39.230;9.122;2023-06-19T14:02:46;26.70;44.30
67598;DHT22;62026;39.230;9.122;2023-06-19T14:05:12;26.60;44.50
67598;DHT22;62026;39.230;9.122;2023-06-19T14:07:41;26.60;44.70
67598;DHT22;62026;39.230;9.122;2023-06-19T14:10:08;26.50;45.40
67598;DHT22;62026;39.230;9.122;2023-06-19T14:12:35;26.50;45.90
67598;DHT22;62026;39.230;9.122;2023-06-19T14:15:01;26.50;45.90
67598;DHT22;62026;39.230;9.122;2023-06-19T14:17:27;26.50;46.20
67598;DHT22;62026;39.230;9.122;2023-06-19T14:19:53;26.40;47.20
67598;DHT22;62026;39.230;9.122;2023-06-19T14:22:21;26.40;46.90
67598;DHT22;62026;39.230;9.122;2023-06-19T14:24:47;26.30;47.10
67598;DHT22;62026;39.230;9.122;2023-06-19T14:27:13;26.30;47.30
67598;DHT22;62026;39.230;9.122;2023-06-19T14:29:39;26.30;47.10
67598;DHT22;62026;39.230;9.122;2023-06-19T14:32:05;26.30;46.90
67598;DHT22;62026;39.230;9.122;2023-06-19T14:34:31;26.30;46.90
67598;DHT22;62026;39.230;9.122;2023-06-19T14:36:57;26.30;47.30
67598;DHT22;62026;39.230;9.122;2023-06-19T14:39:23;26.20;47.30
67598;DHT22;62026;39.230;9.122;2023-06-19T14:41:49;26.20;47.10
67598;DHT22;62026;39.230;9.122;2023-06-19T14:44:15;26.10;47.40
67598;DHT22;62026;39.230;9.122;2023-06-19T14:46:41;26.20;47.40
67598;DHT22;62026;39.230;9.122;2023-06-19T14:49:09;26.20;46.80
67598;DHT22;62026;39.230;9.122;2023-06-19T14:51:36;26.20;45.60
67598;DHT22;62026;39.230;9.122;2023-06-19T14:54:02;26.20;45.30
67598;DHT22;62026;39.230;9.122;2023-06-19T14:56:28;26.30;45.40
67598;DHT22;62026;39.230;9.122;2023-06-19T14:58:55;26.30;45.80
67598;DHT22;62026;39.230;9.122;2023-06-19T15:01:21;26.30;45.50
67598;DHT22;62026;39.230;9.122;2023-06-19T15:03:47;26.30;45.80
67598;DHT22;62026;39.230;9.122;2023-06-19T15:06:13;26.20;45.60
67598;DHT22;62026;39.230;9.122;2023-06-19T15:08:39;26.20;45.60
67598;DHT22;62026;39.230;9.122;2023-06-19T15:11:05;26.30;45.20
67598;DHT22;62026;39.230;9.122;2023-06-19T15:13:32;26.30;45.00
67598;DHT22;62026;39.230;9.122;2023-06-19T15:15:58;26.40;45.00
67598;DHT22;62026;39.230;9.122;2023-06-19T15:18:27;26.50;44.90
67598;DHT22;62026;39.230;9.122;2023-06-19T15:20:53;26.50;44.80
67598;DHT22;62026;39.230;9.122;2023-06-19T15:23:19;26.50;45.20
67598;DHT22;62026;39.230;9.122;2023-06-19T15:25:45;26.50;45.30
67598;DHT22;62026;39.230;9.122;2023-06-19T15:28:11;26.60;45.60
67598;DHT22;62026;39.230;9.122;2023-06-19T15:30:37;26.60;45.40
67598;DHT22;62026;39.230;9.122;2023-06-19T15:33:03;26.50;45.10
67598;DHT22;62026;39.230;9.122;2023-06-19T15:35:29;26.50;44.80
67598;DHT22;62026;39.230;9.122;2023-06-19T15:37:55;26.50;44.70